sensor_id;sensor_type;location;lat;lon;timestamp;noise_LAeq;noise_LA_min;noise_LA_max;noise_LA01;noise_LA95
60116;Laerm;62818;49.394;8.686;2023-12-04T00:00:39;76.55;40.71;86.62;;
60116;Laerm;62818;49.394;8.686;2023-12-04T00:01:46;75.68;41.38;86.94;;
60116;Laerm;62818;49.394;8.686;2023-12-04T00:02:46;76.99;42.41;86.54;;
60116;Laerm;62818;49.394;8.686;2023-12-04T00:03:47;76.32;41.96;86.54;;
60116;Laerm;62818;49.394;8.686;2023-12-04T00:04:48;76.31;42.16;87.17;;
60116;Laerm;62818;49.394;8.686;2023-12-04T00:05:48;76.34;40.80;86.73;;
60116;Laerm;62818;49.394;8.686;2023-12-04T00:06:48;76.38;40.43;86.60;;
60116;Laerm;62818;49.394;8.686;2023-12-04T00:07:49;76.31;39.08;87.14;;
60116;Laerm;62818;49.394;8.686;2023-12-04T00:08:50;74.48;39.46;87.09;;
60116;Laerm;62818;49.394;8.686;2023-12-04T00:09:50;76.06;39.68;87.15;;
60116;Laerm;62818;49.394;8.686;2023-12-04T00:10:51;76.31;39.58;86.93;;
60116;Laerm;62818;49.394;8.686;2023-12-04T00:11:52;76.05;38.81;87.07;;
60116;Laerm;62818;49.394;8.686;2023-12-04T00:12:53;74.89;38.60;88.15;;
60116;Laerm;62818;49.394;8.686;2023-12-04T00:13:53;76.48;41.89;87.47;;
60116;Laerm;62818;49.394;8.686;2023-12-04T00:14:54;76.53;40.03;87.10;;
60116;Laerm;62818;49.394;8.686;2023-12-04T00:15:54;76.59;38.81;86.85;;
60116;Laerm;62818;49.394;8.686;2023-12-04T00:16:55;76.63;38.21;86.52;;
60116;Laerm;62818;49.394;8.686;2023-12-04T00:17:55;76.04;38.67;87.31;;
60116;Laerm;62818;49.394;8.686;2023-12-04T00:18:56;76.58;38.81;87.22;;
60116;Laerm;62818;49.394;8.686;2023-12-04T00:19:56;76.72;38.21;87.63;;
60116;Laerm;62818;49.394;8.686;2023-12-04T00:20:57;76.31;42.16;87.14;;
60116;Laerm;62818;49.394;8.686;2023-12-04T00:21:57;76.19;40.43;87.58;;
60116;Laerm;62818;49.394;8.686;2023-12-04T00:22:58;76.42;39.70;87.53;;
60116;Laerm;62818;49.394;8.686;2023-12-04T00:23:58;76.46;39.34;86.95;;
60116;Laerm;62818;49.394;8.686;2023-12-04T00:24:59;75.85;40.03;87.61;;
60116;Laerm;62818;49.394;8.686;2023-12-04T00:26:00;74.11;40.33;87.91;;
60116;Laerm;62818;49.394;8.686;2023-12-04T00:27:00;75.12;41.38;87.90;;
60116;Laerm;62818;49.394;8.686;2023-12-04T00:28:01;76.98;40.71;87.00;;
60116;Laerm;62818;49.394;8.686;2023-12-04T00:29:01;76.26;41.61;87.13;;
60116;Laerm;62818;49.394;8.686;2023-12-04T00:30:03;75.43;41.03;87.26;;
60116;Laerm;62818;49.394;8.686;2023-12-04T00:31:05;76.92;40.23;87.09;;
60116;Laerm;62818;49.394;8.686;2023-12-04T00:32:05;76.76;38.47;87.29;;
60116;Laerm;62818;49.394;8.686;2023-12-04T00:33:07;76.90;38.52;87.00;;
60116;Laerm;62818;49.394;8.686;2023-12-04T00:34:07;76.91;38.37;87.57;;
60116;Laerm;62818;49.394;8.686;2023-12-04T00:35:08;75.98;40.03;87.73;;
60116;Laerm;62818;49.394;8.686;2023-12-04T00:36:09;76.62;39.70;87.06;;
60116;Laerm;62818;49.394;8.686;2023-12-04T00:37:10;75.93;38.21;88.05;;
60116;Laerm;62818;49.394;8.686;2023-12-04T00:38:11;76.81;36.69;87.14;;
60116;Laerm;62818;49.394;8.686;2023-12-04T00:39:11;76.34;36.20;87.80;;
60116;Laerm;62818;49.394;8.686;2023-12-04T00:40:12;76.52;39.92;87.23;;
60116;Laerm;62818;49.394;8.686;2023-12-04T00:41:12;76.37;40.23;86.85;;
60116;Laerm;62818;49.394;8.686;2023-12-04T00:42:13;76.42;39.46;87.51;;
60116;Laerm;62818;49.394;8.686;2023-12-04T00:43:13;76.20;39.92;87.37;;
60116;Laerm;62818;49.394;8.686;2023-12-04T00:44:14;76.47;37.32;87.31;;
60116;Laerm;62818;49.394;8.686;2023-12-04T00:45:14;75.68;39.70;87.83;;
60116;Laerm;62818;49.394;8.686;2023-12-04T00:46:15;76.29;38.67;87.31;;
60116;Laerm;62818;49.394;8.686;2023-12-04T00:47:15;76.51;38.67;87.30;;
60116;Laerm;62818;49.394;8.686;2023-12-04T00:48:16;76.49;39.70;86.89;;
60116;Laerm;62818;49.394;8.686;2023-12-04T00:49:16;76.53;38.52;86.72;;
60116;Laerm;62818;49.394;8.686;2023-12-04T00:50:17;76.40;37.70;87.32;;
60116;Laerm;62818;49.394;8.686;2023-12-04T00:51:17;76.62;40.53;86.97;;
60116;Laerm;62818;49.394;8.686;2023-12-04T00:52:18;76.47;41.06;87.63;;
60116;Laerm;62818;49.394;8.686;2023-12-04T00:53:19;76.62;40.23;87.44;;
60116;Laerm;62818;49.394;8.686;2023-12-04T00:54:19;76.70;40.23;87.19;;
60116;Laerm;62818;49.394;8.686;2023-12-04T00:55:19;76.03;40.03;87.84;;
60116;Laerm;62818;49.394;8.686;2023-12-04T00:56:20;76.72;40.62;87.85;;
60116;Laerm;62818;49.394;8.686;2023-12-04T00:57:21;76.41;39.21;87.58;;
60116;Laerm;62818;49.394;8.686;2023-12-04T00:58:21;76.66;39.92;87.22;;
60116;Laerm;62818;49.394;8.686;2023-12-04T00:59:22;76.57;38.21;87.25;;
60116;Laerm;62818;49.394;8.686;2023-12-04T01:00:22;76.01;39.46;87.37;;
60116;Laerm;62818;49.394;8.686;2023-12-04T01:01:23;75.66;39.23;87.34;;
60116;Laerm;62818;49.394;8.686;2023-12-04T01:02:24;76.03;39.21;87.76;;
60116;Laerm;62818;49.394;8.686;2023-12-04T01:03:24;76.12;38.52;87.23;;
60116;Laerm;62818;49.394;8.686;2023-12-04T01:04:26;76.72;38.99;86.78;;
60116;Laerm;62818;49.394;8.686;2023-12-04T01:05:27;76.72;38.95;86.81;;
60116;Laerm;62818;49.394;8.686;2023-12-04T01:06:28;76.81;43.34;87.19;;
60116;Laerm;62818;49.394;8.686;2023-12-04T01:07:29;76.68;40.62;87.41;;
60116;Laerm;62818;49.394;8.686;2023-12-04T01:08:30;76.22;38.37;87.30;;
60116;Laerm;62818;49.394;8.686;2023-12-04T01:09:30;76.48;38.67;87.89;;
60116;Laerm;62818;49.394;8.686;2023-12-04T01:10:31;76.74;37.88;86.41;;
60116;Laerm;62818;49.394;8.686;2023-12-04T01:11:31;76.86;38.52;87.38;;
60116;Laerm;62818;49.394;8.686;2023-12-04T01:12:32;76.86;38.52;87.18;;
60116;Laerm;62818;49.394;8.686;2023-12-04T01:13:32;76.41;38.21;87.60;;
60116;Laerm;62818;49.394;8.686;2023-12-04T01:14:33;76.95;39.34;86.99;;
60116;Laerm;62818;49.394;8.686;2023-12-04T01:15:33;76.27;38.37;87.63;;
60116;Laerm;62818;49.394;8.686;2023-12-04T01:16:34;76.54;39.34;87.09;;
60116;Laerm;62818;49.394;8.686;2023-12-04T01:17:35;76.62;40.03;86.65;;
60116;Laerm;62818;49.394;8.686;2023-12-04T01:18:35;76.37;40.33;87.06;;
60116;Laerm;62818;49.394;8.686;2023-12-04T01:19:36;76.35;40.62;86.47;;
60116;Laerm;62818;49.394;8.686;2023-12-04T01:20:36;76.15;39.58;87.61;;
60116;Laerm;62818;49.394;8.686;2023-12-04T01:21:37;76.44;40.89;87.50;;
60116;Laerm;62818;49.394;8.686;2023-12-04T01:22:37;76.25;41.30;87.49;;
60116;Laerm;62818;49.394;8.686;2023-12-04T01:23:38;75.40;39.08;87.70;;
60116;Laerm;62818;49.394;8.686;2023-12-04T01:24:38;76.77;38.81;87.26;;
60116;Laerm;62818;49.394;8.686;2023-12-04T01:25:39;76.95;38.95;87.09;;
60116;Laerm;62818;49.394;8.686;2023-12-04T01:26:39;76.43;38.37;87.28;;
60116;Laerm;62818;49.394;8.686;2023-12-04T01:27:40;76.75;39.81;86.88;;
60116;Laerm;62818;49.394;8.686;2023-12-04T01:28:41;76.20;38.52;87.87;;
60116;Laerm;62818;49.394;8.686;2023-12-04T01:29:41;75.21;38.95;87.65;;
60116;Laerm;62818;49.394;8.686;2023-12-04T01:30:42;75.73;39.08;87.89;;
60116;Laerm;62818;49.394;8.686;2023-12-04T01:31:42;76.60;38.47;86.96;;
60116;Laerm;62818;49.394;8.686;2023-12-04T01:32:43;76.69;37.52;87.07;;
60116;Laerm;62818;49.394;8.686;2023-12-04T01:33:43;76.33;39.21;87.60;;
60116;Laerm;62818;49.394;8.686;2023-12-04T01:34:44;76.38;38.87;87.49;;
60116;Laerm;62818;49.394;8.686;2023-12-04T01:35:44;75.86;39.46;87.56;;
60116;Laerm;62818;49.394;8.686;2023-12-04T01:36:45;74.44;38.52;87.81;;
60116;Laerm;62818;49.394;8.686;2023-12-04T01:37:45;76.63;38.52;86.35;;
60116;Laerm;62818;49.394;8.686;2023-12-04T01:38:46;76.43;37.32;87.23;;
60116;Laerm;62818;49.394;8.686;2023-12-04T01:39:46;76.81;37.88;87.09;;
60116;Laerm;62818;49.394;8.686;2023-12-04T01:40:47;76.61;39.21;87.60;;
60116;Laerm;62818;49.394;8.686;2023-12-04T01:41:48;76.06;40.13;87.67;;
60116;Laerm;62818;49.394;8.686;2023-12-04T01:42:48;76.94;37.32;87.23;;
60116;Laerm;62818;49.394;8.686;2023-12-04T01:43:49;76.76;43.49;86.57;;
60116;Laerm;62818;49.394;8.686;2023-12-04T01:44:49;76.88;40.36;87.11;;
60116;Laerm;62818;49.394;8.686;2023-12-04T01:45:52;76.81;41.68;86.85;;
60116;Laerm;62818;49.394;8.686;2023-12-04T01:46:53;76.96;41.46;87.26;;
60116;Laerm;62818;49.394;8.686;2023-12-04T01:47:54;76.82;41.22;87.04;;
60116;Laerm;62818;49.394;8.686;2023-12-04T01:48:54;76.58;41.30;86.84;;
60116;Laerm;62818;49.394;8.686;2023-12-04T01:49:55;76.94;39.34;87.06;;
60116;Laerm;62818;49.394;8.686;2023-12-04T01:50:57;76.56;39.34;86.85;;
60116;Laerm;62818;49.394;8.686;2023-12-04T01:51:58;77.24;40.23;87.08;;
60116;Laerm;62818;49.394;8.686;2023-12-04T01:52:59;76.56;40.53;87.39;;
60116;Laerm;62818;49.394;8.686;2023-12-04T01:54:03;76.27;40.43;87.43;;
60116;Laerm;62818;49.394;8.686;2023-12-04T01:55:07;76.88;40.62;86.73;;
60116;Laerm;62818;49.394;8.686;2023-12-04T01:56:09;76.83;40.43;87.27;;
60116;Laerm;62818;49.394;8.686;2023-12-04T01:57:10;77.28;40.08;87.29;;
60116;Laerm;62818;49.394;8.686;2023-12-04T01:58:11;76.79;40.53;87.11;;
60116;Laerm;62818;49.394;8.686;2023-12-04T01:59:12;76.74;39.58;87.27;;
60116;Laerm;62818;49.394;8.686;2023-12-04T02:00:13;76.36;40.89;88.00;;
60116;Laerm;62818;49.394;8.686;2023-12-04T02:01:15;43.79;40.13;50.95;;
60116;Laerm;62818;49.394;8.686;2023-12-04T02:02:15;76.92;40.13;86.97;;
60116;Laerm;62818;49.394;8.686;2023-12-04T02:03:17;77.19;41.06;87.37;;
60116;Laerm;62818;49.394;8.686;2023-12-04T02:04:17;77.02;40.89;86.88;;
60116;Laerm;62818;49.394;8.686;2023-12-04T02:05:19;76.58;39.46;87.11;;
60116;Laerm;62818;49.394;8.686;2023-12-04T02:06:21;77.32;40.33;86.74;;
60116;Laerm;62818;49.394;8.686;2023-12-04T02:07:23;77.12;39.34;87.42;;
60116;Laerm;62818;49.394;8.686;2023-12-04T02:08:23;48.67;40.36;61.68;;
60116;Laerm;62818;49.394;8.686;2023-12-04T02:09:25;76.98;40.53;87.31;;
60116;Laerm;62818;49.394;8.686;2023-12-04T02:10:25;76.86;41.06;87.38;;
60116;Laerm;62818;49.394;8.686;2023-12-04T02:11:26;76.98;42.71;86.94;;
60116;Laerm;62818;49.394;8.686;2023-12-04T02:12:26;76.93;39.58;87.30;;
60116;Laerm;62818;49.394;8.686;2023-12-04T02:13:27;76.98;41.14;87.48;;
60116;Laerm;62818;49.394;8.686;2023-12-04T02:14:31;76.76;41.22;87.29;;
60116;Laerm;62818;49.394;8.686;2023-12-04T02:15:31;77.33;41.33;87.36;;
60116;Laerm;62818;49.394;8.686;2023-12-04T02:16:38;76.40;40.33;87.47;;
60116;Laerm;62818;49.394;8.686;2023-12-04T02:17:43;77.06;40.03;87.16;;
60116;Laerm;62818;49.394;8.686;2023-12-04T02:18:43;76.66;40.98;87.30;;
60116;Laerm;62818;49.394;8.686;2023-12-04T02:19:44;76.52;40.13;87.59;;
60116;Laerm;62818;49.394;8.686;2023-12-04T02:20:44;76.88;40.13;86.90;;
60116;Laerm;62818;49.394;8.686;2023-12-04T02:21:45;76.88;40.23;86.73;;
60116;Laerm;62818;49.394;8.686;2023-12-04T02:22:45;76.98;40.23;87.20;;
60116;Laerm;62818;49.394;8.686;2023-12-04T02:23:51;76.72;40.53;87.39;;
60116;Laerm;62818;49.394;8.686;2023-12-04T02:24:52;77.29;41.06;87.13;;
60116;Laerm;62818;49.394;8.686;2023-12-04T02:26:03;76.18;40.89;87.37;;
60116;Laerm;62818;49.394;8.686;2023-12-04T02:27:46;75.48;39.58;86.90;;
60116;Laerm;62818;49.394;8.686;2023-12-04T02:28:55;76.12;39.92;87.03;;
60116;Laerm;62818;49.394;8.686;2023-12-04T02:30:01;77.09;40.53;86.87;;
60116;Laerm;62818;49.394;8.686;2023-12-04T02:31:05;77.03;40.71;87.80;;
60116;Laerm;62818;49.394;8.686;2023-12-04T02:32:11;76.77;40.80;87.04;;
60116;Laerm;62818;49.394;8.686;2023-12-04T02:33:18;77.04;40.80;87.32;;
60116;Laerm;62818;49.394;8.686;2023-12-04T02:34:21;77.05;40.98;87.01;;
60116;Laerm;62818;49.394;8.686;2023-12-04T02:35:26;77.10;40.98;87.03;;
60116;Laerm;62818;49.394;8.686;2023-12-04T02:36:29;76.94;41.46;87.08;;
60116;Laerm;62818;49.394;8.686;2023-12-04T02:37:32;77.29;41.38;86.70;;
60116;Laerm;62818;49.394;8.686;2023-12-04T02:38:33;77.44;41.06;87.20;;
60116;Laerm;62818;49.394;8.686;2023-12-04T02:39:34;77.00;41.96;87.57;;
60116;Laerm;62818;49.394;8.686;2023-12-04T02:40:35;77.01;42.16;87.02;;
60116;Laerm;62818;49.394;8.686;2023-12-04T02:41:35;77.03;42.59;87.46;;
60116;Laerm;62818;49.394;8.686;2023-12-04T02:42:36;77.04;42.22;86.90;;
60116;Laerm;62818;49.394;8.686;2023-12-04T02:43:37;76.70;42.16;87.15;;
60116;Laerm;62818;49.394;8.686;2023-12-04T02:44:37;77.02;41.61;87.55;;
60116;Laerm;62818;49.394;8.686;2023-12-04T02:45:38;77.07;42.03;87.84;;
60116;Laerm;62818;49.394;8.686;2023-12-04T02:46:39;76.70;40.98;87.47;;
60116;Laerm;62818;49.394;8.686;2023-12-04T02:47:39;77.16;40.62;87.23;;
60116;Laerm;62818;49.394;8.686;2023-12-04T02:48:40;76.88;40.62;87.42;;
60116;Laerm;62818;49.394;8.686;2023-12-04T02:49:40;76.85;41.06;87.46;;
60116;Laerm;62818;49.394;8.686;2023-12-04T02:50:41;76.93;41.06;87.16;;
60116;Laerm;62818;49.394;8.686;2023-12-04T02:51:41;76.80;40.43;86.78;;
60116;Laerm;62818;49.394;8.686;2023-12-04T02:52:42;77.02;41.38;87.33;;
60116;Laerm;62818;49.394;8.686;2023-12-04T02:53:43;76.80;41.26;87.47;;
60116;Laerm;62818;49.394;8.686;2023-12-04T02:54:43;76.81;41.89;86.58;;
60116;Laerm;62818;49.394;8.686;2023-12-04T02:55:44;76.88;41.46;87.18;;
60116;Laerm;62818;49.394;8.686;2023-12-04T02:56:44;76.91;40.98;87.41;;
60116;Laerm;62818;49.394;8.686;2023-12-04T02:57:45;76.84;41.03;86.97;;
60116;Laerm;62818;49.394;8.686;2023-12-04T02:58:45;76.90;40.03;87.06;;
60116;Laerm;62818;49.394;8.686;2023-12-04T02:59:46;76.92;41.06;87.17;;
60116;Laerm;62818;49.394;8.686;2023-12-04T03:00:46;77.02;40.80;87.41;;
60116;Laerm;62818;49.394;8.686;2023-12-04T03:01:47;76.86;41.38;87.43;;
60116;Laerm;62818;49.394;8.686;2023-12-04T03:02:47;76.84;41.89;86.53;;
60116;Laerm;62818;49.394;8.686;2023-12-04T03:03:48;76.95;41.38;87.37;;
60116;Laerm;62818;49.394;8.686;2023-12-04T03:04:48;76.92;41.53;87.17;;
60116;Laerm;62818;49.394;8.686;2023-12-04T03:05:49;76.68;39.81;86.72;;
60116;Laerm;62818;49.394;8.686;2023-12-04T03:06:49;76.97;41.75;87.51;;
60116;Laerm;62818;49.394;8.686;2023-12-04T03:07:50;77.02;41.61;87.43;;
60116;Laerm;62818;49.394;8.686;2023-12-04T03:08:50;77.15;41.61;87.53;;
60116;Laerm;62818;49.394;8.686;2023-12-04T03:09:51;77.00;43.63;87.46;;
60116;Laerm;62818;49.394;8.686;2023-12-04T03:10:51;77.15;42.47;87.54;;
60116;Laerm;62818;49.394;8.686;2023-12-04T03:11:52;76.97;41.68;87.37;;
60116;Laerm;62818;49.394;8.686;2023-12-04T03:12:52;76.92;41.96;87.69;;
60116;Laerm;62818;49.394;8.686;2023-12-04T03:13:53;76.90;41.53;86.87;;
60116;Laerm;62818;49.394;8.686;2023-12-04T03:14:53;76.90;42.09;87.23;;
60116;Laerm;62818;49.394;8.686;2023-12-04T03:15:54;77.05;41.68;87.20;;
60116;Laerm;62818;49.394;8.686;2023-12-04T03:16:55;76.80;42.22;87.67;;
60116;Laerm;62818;49.394;8.686;2023-12-04T03:17:59;76.64;41.89;87.27;;
60116;Laerm;62818;49.394;8.686;2023-12-04T03:19:01;77.40;42.93;86.71;;
60116;Laerm;62818;49.394;8.686;2023-12-04T03:20:01;76.97;42.09;87.30;;
60116;Laerm;62818;49.394;8.686;2023-12-04T03:21:02;76.98;41.26;87.06;;
60116;Laerm;62818;49.394;8.686;2023-12-04T03:22:06;76.68;41.68;87.18;;
60116;Laerm;62818;49.394;8.686;2023-12-04T03:23:06;77.09;42.35;87.43;;
60116;Laerm;62818;49.394;8.686;2023-12-04T03:24:07;76.91;42.41;86.85;;
60116;Laerm;62818;49.394;8.686;2023-12-04T03:25:08;76.80;42.98;87.65;;
60116;Laerm;62818;49.394;8.686;2023-12-04T03:26:09;76.54;41.75;87.37;;
60116;Laerm;62818;49.394;8.686;2023-12-04T03:27:09;77.10;42.16;87.55;;
60116;Laerm;62818;49.394;8.686;2023-12-04T03:28:10;76.82;41.68;87.22;;
60116;Laerm;62818;49.394;8.686;2023-12-04T03:29:10;76.81;41.22;87.00;;
60116;Laerm;62818;49.394;8.686;2023-12-04T03:30:11;76.94;41.82;87.63;;
60116;Laerm;62818;49.394;8.686;2023-12-04T03:31:12;77.20;42.47;87.68;;
60116;Laerm;62818;49.394;8.686;2023-12-04T03:32:12;76.91;41.75;86.61;;
60116;Laerm;62818;49.394;8.686;2023-12-04T03:33:13;76.98;41.96;87.52;;
60116;Laerm;62818;49.394;8.686;2023-12-04T03:34:13;76.94;42.88;87.73;;
60116;Laerm;62818;49.394;8.686;2023-12-04T03:35:14;76.95;42.93;87.49;;
60116;Laerm;62818;49.394;8.686;2023-12-04T03:36:15;76.97;42.41;87.25;;
60116;Laerm;62818;49.394;8.686;2023-12-04T03:37:15;77.00;42.22;87.34;;
60116;Laerm;62818;49.394;8.686;2023-12-04T03:38:16;76.84;43.34;87.31;;
60116;Laerm;62818;49.394;8.686;2023-12-04T03:39:16;76.86;42.13;87.59;;
60116;Laerm;62818;49.394;8.686;2023-12-04T03:40:17;76.88;41.53;86.97;;
60116;Laerm;62818;49.394;8.686;2023-12-04T03:41:17;76.99;42.03;86.88;;
60116;Laerm;62818;49.394;8.686;2023-12-04T03:42:18;76.94;42.65;87.42;;
60116;Laerm;62818;49.394;8.686;2023-12-04T03:43:19;76.79;42.29;87.02;;
60116;Laerm;62818;49.394;8.686;2023-12-04T03:44:19;76.20;42.09;87.21;;
60116;Laerm;62818;49.394;8.686;2023-12-04T03:45:19;76.65;41.53;87.59;;
60116;Laerm;62818;49.394;8.686;2023-12-04T03:46:20;76.43;40.33;87.20;;
60116;Laerm;62818;49.394;8.686;2023-12-04T03:47:21;76.82;40.03;86.94;;
60116;Laerm;62818;49.394;8.686;2023-12-04T03:48:21;76.83;42.98;87.09;;
60116;Laerm;62818;49.394;8.686;2023-12-04T03:49:22;76.74;45.45;87.10;;
60116;Laerm;62818;49.394;8.686;2023-12-04T03:50:22;76.92;43.04;87.77;;
60116;Laerm;62818;49.394;8.686;2023-12-04T03:51:23;76.76;41.89;87.43;;
60116;Laerm;62818;49.394;8.686;2023-12-04T03:52:23;76.55;41.96;87.10;;
60116;Laerm;62818;49.394;8.686;2023-12-04T03:53:24;76.68;41.22;87.01;;
60116;Laerm;62818;49.394;8.686;2023-12-04T03:54:24;76.62;41.22;87.28;;
60116;Laerm;62818;49.394;8.686;2023-12-04T03:55:25;76.87;42.82;87.71;;
60116;Laerm;62818;49.394;8.686;2023-12-04T03:56:26;76.53;41.06;87.68;;
60116;Laerm;62818;49.394;8.686;2023-12-04T03:57:26;76.86;42.16;87.51;;
60116;Laerm;62818;49.394;8.686;2023-12-04T03:58:27;76.76;43.63;86.71;;
60116;Laerm;62818;49.394;8.686;2023-12-04T03:59:27;76.67;44.31;86.76;;
60116;Laerm;62818;49.394;8.686;2023-12-04T04:00:28;76.72;43.37;86.87;;
60116;Laerm;62818;49.394;8.686;2023-12-04T04:01:28;76.71;42.53;87.16;;
60116;Laerm;62818;49.394;8.686;2023-12-04T04:02:29;76.93;42.47;87.50;;
60116;Laerm;62818;49.394;8.686;2023-12-04T04:03:29;76.58;43.76;87.35;;
60116;Laerm;62818;49.394;8.686;2023-12-04T04:04:30;76.95;42.65;86.72;;
60116;Laerm;62818;49.394;8.686;2023-12-04T04:05:30;76.85;41.96;87.09;;
60116;Laerm;62818;49.394;8.686;2023-12-04T04:06:34;76.98;42.09;87.21;;
60116;Laerm;62818;49.394;8.686;2023-12-04T04:07:35;82.20;41.61;105.10;;
60116;Laerm;62818;49.394;8.686;2023-12-04T04:08:35;77.70;42.88;92.97;;
60116;Laerm;62818;49.394;8.686;2023-12-04T04:09:36;76.82;42.41;86.60;;
60116;Laerm;62818;49.394;8.686;2023-12-04T04:10:37;76.73;42.71;86.98;;
60116;Laerm;62818;49.394;8.686;2023-12-04T04:11:37;76.84;43.04;86.73;;
60116;Laerm;62818;49.394;8.686;2023-12-04T04:12:38;76.85;42.71;87.45;;
60116;Laerm;62818;49.394;8.686;2023-12-04T04:13:38;76.95;44.58;87.54;;
60116;Laerm;62818;49.394;8.686;2023-12-04T04:14:39;76.75;42.47;87.67;;
60116;Laerm;62818;49.394;8.686;2023-12-04T04:15:39;76.80;41.68;87.14;;
60116;Laerm;62818;49.394;8.686;2023-12-04T04:16:40;76.80;43.49;87.37;;
60116;Laerm;62818;49.394;8.686;2023-12-04T04:17:41;76.87;43.19;87.10;;
60116;Laerm;62818;49.394;8.686;2023-12-04T04:18:42;76.84;42.09;87.64;;
60116;Laerm;62818;49.394;8.686;2023-12-04T04:19:43;76.85;41.68;87.44;;
60116;Laerm;62818;49.394;8.686;2023-12-04T04:20:44;76.48;40.80;87.15;;
60116;Laerm;62818;49.394;8.686;2023-12-04T04:21:44;76.07;42.29;87.79;;
60116;Laerm;62818;49.394;8.686;2023-12-04T04:22:48;76.68;43.34;87.23;;
60116;Laerm;62818;49.394;8.686;2023-12-04T04:23:48;76.64;42.98;87.06;;
60116;Laerm;62818;49.394;8.686;2023-12-04T04:24:49;77.46;42.98;93.80;;
60116;Laerm;62818;49.394;8.686;2023-12-04T04:25:50;78.00;44.27;95.91;;
60116;Laerm;62818;49.394;8.686;2023-12-04T04:26:50;76.51;43.49;87.52;;
60116;Laerm;62818;49.394;8.686;2023-12-04T04:27:51;76.68;43.34;87.13;;
60116;Laerm;62818;49.394;8.686;2023-12-04T04:28:51;76.13;43.19;87.30;;
60116;Laerm;62818;49.394;8.686;2023-12-04T04:29:52;76.75;46.28;87.13;;
60116;Laerm;62818;49.394;8.686;2023-12-04T04:30:52;76.53;42.90;86.87;;
60116;Laerm;62818;49.394;8.686;2023-12-04T04:31:53;76.43;42.59;87.40;;
60116;Laerm;62818;49.394;8.686;2023-12-04T04:32:53;76.73;47.04;86.93;;
60116;Laerm;62818;49.394;8.686;2023-12-04T04:33:54;76.61;44.54;86.74;;
60116;Laerm;62818;49.394;8.686;2023-12-04T04:34:54;76.32;42.76;87.50;;
60116;Laerm;62818;49.394;8.686;2023-12-04T04:35:55;76.72;42.71;87.52;;
60116;Laerm;62818;49.394;8.686;2023-12-04T04:36:55;76.28;46.02;87.02;;
60116;Laerm;62818;49.394;8.686;2023-12-04T04:37:56;76.85;43.44;93.42;;
60116;Laerm;62818;49.394;8.686;2023-12-04T04:38:56;77.31;46.10;92.59;;
60116;Laerm;62818;49.394;8.686;2023-12-04T04:39:57;76.63;46.62;87.47;;
60116;Laerm;62818;49.394;8.686;2023-12-04T04:40:57;77.81;42.76;93.35;;
60116;Laerm;62818;49.394;8.686;2023-12-04T04:41:58;77.85;40.53;91.14;;
60116;Laerm;62818;49.394;8.686;2023-12-04T04:42:58;76.97;44.23;86.68;;
60116;Laerm;62818;49.394;8.686;2023-12-04T04:43:59;76.92;46.62;86.85;;
60116;Laerm;62818;49.394;8.686;2023-12-04T04:44:59;76.87;43.86;87.11;;
60116;Laerm;62818;49.394;8.686;2023-12-04T04:46:00;77.15;44.83;90.30;;
60116;Laerm;62818;49.394;8.686;2023-12-04T04:47:00;76.64;43.29;87.24;;
60116;Laerm;62818;49.394;8.686;2023-12-04T04:48:01;76.80;44.35;87.11;;
60116;Laerm;62818;49.394;8.686;2023-12-04T04:49:01;76.72;42.09;87.10;;
60116;Laerm;62818;49.394;8.686;2023-12-04T04:50:02;76.78;41.96;87.61;;
60116;Laerm;62818;49.394;8.686;2023-12-04T04:51:04;76.66;42.09;87.14;;
60116;Laerm;62818;49.394;8.686;2023-12-04T04:52:05;76.49;42.93;87.22;;
60116;Laerm;62818;49.394;8.686;2023-12-04T04:53:05;76.61;43.77;86.94;;
60116;Laerm;62818;49.394;8.686;2023-12-04T04:54:06;76.72;43.04;86.76;;
60116;Laerm;62818;49.394;8.686;2023-12-04T04:55:07;76.56;42.03;87.44;;
60116;Laerm;62818;49.394;8.686;2023-12-04T04:56:08;76.78;42.29;87.31;;
60116;Laerm;62818;49.394;8.686;2023-12-04T04:57:09;53.22;42.03;64.05;;
60116;Laerm;62818;49.394;8.686;2023-12-04T04:58:09;76.58;42.98;87.06;;
60116;Laerm;62818;49.394;8.686;2023-12-04T04:59:10;76.50;44.23;87.28;;
60116;Laerm;62818;49.394;8.686;2023-12-04T05:00:11;76.67;43.19;87.54;;
60116;Laerm;62818;49.394;8.686;2023-12-04T05:01:12;54.24;43.77;64.62;;
60116;Laerm;62818;49.394;8.686;2023-12-04T05:02:12;77.24;42.41;86.98;;
60116;Laerm;62818;49.394;8.686;2023-12-04T05:03:13;76.95;44.27;87.33;;
60116;Laerm;62818;49.394;8.686;2023-12-04T05:04:13;76.89;46.89;86.33;;
60116;Laerm;62818;49.394;8.686;2023-12-04T05:05:14;76.63;44.39;87.07;;
60116;Laerm;62818;49.394;8.686;2023-12-04T05:06:14;76.38;42.29;87.30;;
60116;Laerm;62818;49.394;8.686;2023-12-04T05:07:15;76.70;42.71;87.30;;
60116;Laerm;62818;49.394;8.686;2023-12-04T05:08:15;76.64;43.72;87.16;;
60116;Laerm;62818;49.394;8.686;2023-12-04T05:09:16;76.48;43.29;86.87;;
60116;Laerm;62818;49.394;8.686;2023-12-04T05:10:17;76.59;42.29;87.26;;
60116;Laerm;62818;49.394;8.686;2023-12-04T05:11:18;75.94;44.94;87.46;;
60116;Laerm;62818;49.394;8.686;2023-12-04T05:12:18;76.96;51.33;86.77;;
60116;Laerm;62818;49.394;8.686;2023-12-04T05:13:19;76.63;43.90;87.40;;
60116;Laerm;62818;49.394;8.686;2023-12-04T05:14:19;76.89;44.69;87.26;;
60116;Laerm;62818;49.394;8.686;2023-12-04T05:15:20;76.57;43.19;87.53;;
60116;Laerm;62818;49.394;8.686;2023-12-04T05:16:20;76.37;42.76;87.20;;
60116;Laerm;62818;49.394;8.686;2023-12-04T05:17:21;76.72;42.93;87.35;;
60116;Laerm;62818;49.394;8.686;2023-12-04T05:18:21;76.58;43.49;87.20;;
60116;Laerm;62818;49.394;8.686;2023-12-04T05:19:22;76.93;44.35;86.86;;
60116;Laerm;62818;49.394;8.686;2023-12-04T05:20:22;76.53;43.90;86.55;;
60116;Laerm;62818;49.394;8.686;2023-12-04T05:21:23;76.61;42.74;87.28;;
60116;Laerm;62818;49.394;8.686;2023-12-04T05:22:23;76.38;43.24;87.38;;
60116;Laerm;62818;49.394;8.686;2023-12-04T05:23:23;76.72;43.29;87.20;;
60116;Laerm;62818;49.394;8.686;2023-12-04T05:24:24;76.81;42.59;87.22;;
60116;Laerm;62818;49.394;8.686;2023-12-04T05:25:24;76.52;43.34;87.40;;
60116;Laerm;62818;49.394;8.686;2023-12-04T05:26:25;77.22;45.36;87.28;;
60116;Laerm;62818;49.394;8.686;2023-12-04T05:27:25;76.62;44.19;87.12;;
60116;Laerm;62818;49.394;8.686;2023-12-04T05:28:26;76.73;45.07;86.99;;
60116;Laerm;62818;49.394;8.686;2023-12-04T05:29:26;76.60;43.39;86.74;;
60116;Laerm;62818;49.394;8.686;2023-12-04T05:30:27;76.39;42.29;87.73;;
60116;Laerm;62818;49.394;8.686;2023-12-04T05:31:27;76.38;42.76;86.95;;
60116;Laerm;62818;49.394;8.686;2023-12-04T05:32:28;76.46;45.27;87.57;;
60116;Laerm;62818;49.394;8.686;2023-12-04T05:33:28;76.68;44.11;87.25;;
60116;Laerm;62818;49.394;8.686;2023-12-04T05:34:29;76.80;42.98;86.96;;
60116;Laerm;62818;49.394;8.686;2023-12-04T05:35:30;76.75;44.19;87.43;;
60116;Laerm;62818;49.394;8.686;2023-12-04T05:36:34;77.09;43.72;86.68;;
60116;Laerm;62818;49.394;8.686;2023-12-04T05:37:34;81.69;45.39;99.52;;
60116;Laerm;62818;49.394;8.686;2023-12-04T05:38:35;76.43;50.22;87.06;;
60116;Laerm;62818;49.394;8.686;2023-12-04T05:39:35;76.64;48.67;87.46;;
60116;Laerm;62818;49.394;8.686;2023-12-04T05:40:36;76.53;44.90;87.17;;
60116;Laerm;62818;49.394;8.686;2023-12-04T05:41:36;76.73;46.28;87.08;;